createdAt,value
2023-01-31T00:01:55.544Z,13.30
2023-01-31T00:04:56.938Z,14.30
2023-01-31T00:07:58.324Z,12.70
2023-01-31T00:10:59.697Z,12.03
2023-01-31T00:14:04.065Z,12.80
2023-01-31T00:17:05.469Z,14.77
2023-01-31T00:20:07.931Z,13.07
2023-01-31T00:23:09.350Z,18.90
2023-01-31T00:26:19.039Z,16.23
2023-01-31T00:29:20.551Z,13.93
2023-01-31T00:32:22.023Z,13.87
2023-01-31T00:35:25.452Z,16.43
2023-01-31T00:38:26.853Z,14.47
2023-01-31T00:41:30.664Z,15.53
2023-01-31T00:44:32.094Z,17.43
2023-01-31T00:47:33.560Z,14.30
2023-01-31T00:50:35.388Z,13.30
2023-01-31T00:53:38.318Z,13.53
2023-01-31T00:56:40.057Z,13.93
2023-01-31T00:59:41.486Z,14.00
2023-01-31T01:02:42.894Z,16.50
2023-01-31T01:05:44.525Z,16.53
2023-01-31T01:08:46.865Z,15.20
2023-01-31T01:11:49.921Z,13.73
2023-01-31T01:14:51.318Z,16.17
2023-01-31T01:17:52.892Z,14.37
2023-01-31T01:20:54.532Z,17.10
2023-01-31T01:23:58.278Z,15.50
2023-01-31T01:26:59.772Z,17.07
2023-01-31T01:30:02.021Z,16.67
2023-01-31T01:33:03.583Z,13.40
2023-01-31T01:36:08.044Z,16.70
2023-01-31T01:39:11.945Z,13.90
2023-01-31T01:42:18.033Z,17.13
2023-01-31T01:45:21.182Z,18.50
2023-01-31T01:48:22.926Z,15.10
2023-01-31T01:51:25.092Z,16.23
2023-01-31T01:54:34.568Z,15.23
2023-01-31T01:57:41.729Z,13.27
2023-01-31T02:00:46.973Z,17.43
2023-01-31T02:03:51.255Z,17.47
2023-01-31T02:06:53.373Z,18.03
2023-01-31T02:10:12.208Z,13.77
2023-01-31T02:13:15.082Z,18.30
2023-01-31T02:16:19.585Z,16.13
2023-01-31T02:20:05.645Z,16.67
2023-01-31T02:23:33.303Z,15.83
2023-01-31T02:26:53.019Z,14.47
2023-01-31T02:30:17.087Z,16.37
2023-01-31T02:33:27.110Z,14.97
2023-01-31T02:36:51.726Z,16.90
2023-01-31T02:40:22.883Z,11.30
2023-01-31T02:44:00.516Z,18.00
2023-01-31T02:47:11.257Z,15.20
2023-01-31T02:50:24.335Z,18.00
2023-01-31T02:53:42.556Z,17.17
2023-01-31T02:56:46.257Z,19.50
2023-01-31T02:59:49.185Z,17.00
2023-01-31T03:02:50.663Z,15.50
2023-01-31T03:06:13.539Z,16.10
2023-01-31T03:09:28.279Z,14.23
2023-01-31T03:12:38.303Z,14.83
2023-01-31T03:16:14.149Z,18.10
2023-01-31T03:19:21.187Z,15.97
2023-01-31T03:22:31.464Z,12.67
2023-01-31T03:25:37.404Z,14.07
2023-01-31T03:28:43.400Z,15.70
2023-01-31T03:31:53.274Z,15.67
2023-01-31T03:34:55.063Z,19.27
2023-01-31T03:38:08.236Z,15.30
2023-01-31T03:41:37.778Z,15.97
2023-01-31T03:44:53.401Z,16.33
2023-01-31T03:47:59.356Z,16.30
2023-01-31T03:51:07.000Z,12.90
2023-01-31T03:54:16.141Z,19.77
2023-01-31T03:57:24.013Z,17.07
2023-01-31T04:00:27.051Z,17.47
2023-01-31T04:03:48.853Z,16.17
2023-01-31T04:06:50.780Z,16.90
2023-01-31T04:09:52.754Z,17.27
2023-01-31T04:12:54.473Z,18.23
2023-01-31T04:15:56.041Z,15.40
2023-01-31T04:18:57.475Z,18.23
2023-01-31T04:21:58.898Z,18.40
2023-01-31T04:25:00.362Z,17.97
2023-01-31T04:28:01.787Z,19.13
2023-01-31T04:31:03.430Z,16.93
2023-01-31T04:34:04.915Z,19.80
2023-01-31T04:37:06.343Z,20.43
2023-01-31T04:40:08.701Z,18.17
2023-01-31T04:43:10.776Z,18.70
2023-01-31T04:46:12.260Z,17.10
2023-01-31T04:49:15.192Z,18.53
2023-01-31T04:52:16.584Z,18.93
2023-01-31T04:55:18.959Z,14.33
2023-01-31T04:58:20.707Z,17.63
2023-01-31T05:01:22.152Z,16.63
2023-01-31T05:04:23.689Z,17.10
2023-01-31T05:07:25.119Z,21.10
2023-01-31T05:10:26.508Z,17.00
2023-01-31T05:13:30.049Z,19.47
2023-01-31T05:16:31.935Z,17.57
2023-01-31T05:19:33.397Z,16.47
2023-01-31T05:22:34.776Z,16.73
2023-01-31T05:25:37.398Z,22.87
2023-01-31T05:28:38.839Z,17.63
2023-01-31T05:31:40.662Z,16.47
2023-01-31T05:34:42.111Z,18.77
2023-01-31T05:37:44.646Z,15.70
2023-01-31T05:40:46.630Z,17.33
2023-01-31T05:43:48.035Z,16.70
2023-01-31T05:46:49.743Z,17.83
2023-01-31T05:49:51.130Z,16.07
2023-01-31T05:52:54.660Z,17.43
2023-01-31T05:55:56.100Z,18.70
2023-01-31T05:58:57.539Z,18.53
2023-01-31T06:01:59.738Z,18.13
2023-01-31T06:05:01.759Z,17.93
2023-01-31T06:08:03.269Z,17.07
2023-01-31T06:11:05.373Z,18.10
2023-01-31T06:14:08.609Z,17.73
2023-01-31T06:17:09.993Z,19.17
2023-01-31T06:20:11.631Z,18.37
2023-01-31T06:23:13.068Z,20.17
2023-01-31T06:26:14.851Z,17.27
2023-01-31T06:29:16.285Z,24.73
2023-01-31T06:32:17.677Z,17.90
2023-01-31T06:35:19.445Z,19.17
2023-01-31T06:38:21.033Z,21.00
2023-01-31T06:41:22.592Z,17.60
2023-01-31T06:44:25.901Z,18.50
2023-01-31T06:47:27.882Z,21.80
2023-01-31T06:50:29.328Z,18.97
2023-01-31T06:53:30.845Z,19.07
2023-01-31T06:56:32.758Z,19.97
2023-01-31T06:59:34.177Z,16.17
2023-01-31T07:02:35.598Z,23.23
2023-01-31T07:05:37.029Z,18.53
2023-01-31T07:08:38.504Z,19.57
2023-01-31T07:11:40.034Z,20.90
2023-01-31T07:14:42.500Z,22.67
2023-01-31T07:17:44.191Z,21.37
2023-01-31T07:20:45.703Z,20.13
2023-01-31T07:23:47.167Z,25.07
2023-01-31T07:26:52.948Z,22.70
2023-01-31T07:29:54.409Z,20.47
2023-01-31T07:32:55.817Z,20.17
2023-01-31T07:35:57.220Z,20.67
2023-01-31T07:38:59.887Z,20.03
2023-01-31T07:42:01.305Z,23.70
2023-01-31T07:45:20.934Z,20.53
2023-01-31T07:48:24.399Z,18.23
2023-01-31T07:51:25.833Z,20.10
2023-01-31T07:54:27.213Z,17.63
2023-01-31T07:57:32.144Z,17.70
2023-01-31T08:00:51.991Z,20.67
2023-01-31T08:03:53.401Z,17.13
2023-01-31T08:06:55.985Z,17.03
2023-01-31T08:09:57.426Z,19.83
2023-01-31T08:12:58.803Z,19.70
2023-01-31T08:16:00.382Z,19.10
2023-01-31T08:19:02.213Z,19.83
2023-01-31T08:22:04.771Z,19.70
2023-01-31T08:25:06.285Z,23.40
2023-01-31T08:28:08.208Z,19.53
2023-01-31T08:31:18.913Z,22.77
2023-01-31T08:34:21.037Z,19.13
2023-01-31T08:37:22.443Z,26.73
2023-01-31T08:40:24.137Z,23.17
2023-01-31T08:43:25.604Z,20.57
2023-01-31T08:46:30.821Z,22.57
2023-01-31T08:49:36.199Z,19.63
2023-01-31T08:52:37.681Z,18.67
2023-01-31T08:55:39.059Z,22.93
2023-01-31T08:58:42.139Z,25.03
2023-01-31T09:01:46.524Z,20.33
2023-01-31T09:04:47.975Z,18.90
2023-01-31T09:07:49.446Z,18.20
2023-01-31T09:10:52.739Z,17.37
2023-01-31T09:13:54.172Z,16.47
2023-01-31T09:16:55.724Z,17.27
2023-01-31T09:19:57.911Z,15.33
2023-01-31T09:22:59.303Z,19.93
2023-01-31T09:26:00.814Z,17.33
2023-01-31T09:29:02.274Z,17.33
2023-01-31T09:32:04.127Z,16.53
2023-01-31T09:35:05.999Z,20.37
2023-01-31T09:38:07.450Z,16.13
2023-01-31T09:41:26.846Z,17.13
2023-01-31T09:44:32.404Z,15.90
2023-01-31T09:47:41.433Z,16.83
2023-01-31T09:50:48.497Z,19.80
2023-01-31T09:53:49.994Z,13.93
2023-01-31T09:57:29.456Z,14.73
2023-01-31T10:00:36.613Z,11.30
2023-01-31T10:03:55.309Z,13.00
2023-01-31T10:07:01.092Z,15.93
2023-01-31T10:10:17.491Z,14.57
2023-01-31T10:13:29.734Z,14.10
2023-01-31T10:16:37.837Z,15.37
2023-01-31T10:19:44.135Z,12.63
2023-01-31T10:23:02.452Z,14.63
2023-01-31T10:26:13.842Z,16.27
2023-01-31T10:29:29.462Z,14.97
2023-01-31T10:32:39.247Z,14.47
2023-01-31T10:35:43.930Z,14.43
2023-01-31T10:39:06.241Z,10.87
2023-01-31T10:42:33.499Z,16.43
2023-01-31T10:45:34.945Z,15.10
2023-01-31T10:48:36.411Z,17.10
2023-01-31T10:51:52.948Z,14.30
2023-01-31T10:55:22.062Z,12.50
2023-01-31T10:58:23.735Z,12.03
2023-01-31T11:01:25.486Z,15.53
2023-01-31T11:04:42.720Z,15.53
2023-01-31T11:07:44.348Z,14.30
2023-01-31T11:10:52.535Z,13.20
2023-01-31T11:14:05.663Z,11.37
2023-01-31T11:17:17.369Z,13.03
2023-01-31T11:20:21.386Z,10.80
2023-01-31T11:23:26.026Z,12.43
2023-01-31T11:26:31.733Z,14.43
2023-01-31T11:29:39.635Z,10.27
2023-01-31T11:32:43.467Z,12.17
2023-01-31T11:35:51.847Z,13.77
2023-01-31T11:38:54.649Z,13.37
2023-01-31T11:41:56.119Z,14.30
2023-01-31T11:45:17.572Z,10.17
2023-01-31T11:48:23.675Z,13.10
2023-01-31T11:51:31.661Z,14.03
2023-01-31T11:54:34.796Z,12.13
2023-01-31T11:57:37.612Z,16.10
2023-01-31T12:00:53.459Z,12.83
2023-01-31T12:04:03.467Z,15.03
2023-01-31T12:07:20.930Z,12.43
2023-01-31T12:10:45.790Z,14.73
2023-01-31T12:13:49.241Z,13.10
2023-01-31T12:16:55.709Z,12.20
2023-01-31T12:20:26.948Z,12.83
2023-01-31T12:23:42.664Z,14.97
2023-01-31T12:26:50.412Z,12.30
2023-01-31T12:30:22.912Z,15.00
2023-01-31T12:33:39.225Z,10.43
2023-01-31T12:36:54.198Z,10.93
2023-01-31T12:40:25.102Z,12.00
2023-01-31T12:43:56.698Z,10.40
2023-01-31T12:47:40.232Z,9.70
2023-01-31T12:50:48.400Z,13.17
2023-01-31T12:54:02.954Z,12.73
2023-01-31T12:57:31.917Z,20.53
2023-01-31T13:01:15.085Z,13.53
2023-01-31T13:04:28.410Z,10.87
2023-01-31T13:07:41.227Z,13.50
2023-01-31T13:10:51.846Z,11.57
2023-01-31T13:14:04.641Z,11.33
2023-01-31T13:17:11.285Z,9.83
2023-01-31T13:20:22.048Z,13.67
2023-01-31T13:23:31.437Z,10.93
2023-01-31T13:26:37.014Z,12.53
2023-01-31T13:29:47.124Z,9.83
2023-01-31T13:32:52.109Z,10.00
2023-01-31T13:36:15.431Z,12.03
2023-01-31T13:39:35.704Z,12.03
2023-01-31T13:42:37.159Z,10.53
2023-01-31T13:45:48.196Z,11.57
2023-01-31T13:49:03.522Z,11.10
2023-01-31T13:52:25.497Z,10.40
2023-01-31T13:55:33.790Z,10.07
2023-01-31T13:58:36.543Z,11.17
2023-01-31T14:01:48.148Z,9.67
2023-01-31T14:04:49.697Z,7.63
2023-01-31T14:08:29.876Z,9.27
2023-01-31T14:11:33.574Z,12.03
2023-01-31T14:14:38.823Z,9.43
2023-01-31T14:17:40.218Z,12.20
2023-01-31T14:20:41.589Z,12.77
2023-01-31T14:23:47.172Z,10.50
2023-01-31T14:26:48.605Z,12.93
2023-01-31T14:30:19.818Z,10.13
2023-01-31T14:33:25.091Z,15.07
2023-01-31T14:36:45.873Z,11.57
2023-01-31T14:40:11.626Z,10.90
2023-01-31T14:43:40.387Z,8.63
2023-01-31T14:46:53.803Z,10.37
2023-01-31T14:50:23.587Z,7.97
2023-01-31T14:53:39.210Z,11.87
2023-01-31T14:57:15.987Z,9.67
2023-01-31T15:00:17.535Z,10.50
2023-01-31T15:03:31.839Z,7.97
2023-01-31T15:06:40.379Z,8.67
2023-01-31T15:09:41.813Z,9.63
2023-01-31T15:13:01.579Z,12.27
2023-01-31T15:16:06.034Z,12.37
2023-01-31T15:19:13.052Z,10.40
2023-01-31T15:22:18.221Z,10.10
2023-01-31T15:25:32.547Z,7.17
2023-01-31T15:28:38.338Z,15.00
2023-01-31T15:31:47.159Z,10.23
2023-01-31T15:35:07.437Z,11.50
2023-01-31T15:38:29.699Z,11.73
2023-01-31T15:41:42.451Z,9.70
2023-01-31T15:44:43.913Z,12.30
2023-01-31T15:47:56.524Z,13.00
2023-01-31T15:50:59.307Z,10.27
2023-01-31T15:54:05.682Z,11.53
2023-01-31T15:57:15.435Z,10.80
2023-01-31T16:00:37.918Z,11.43
2023-01-31T16:03:41.837Z,11.97
2023-01-31T16:06:43.348Z,11.00
2023-01-31T16:09:46.287Z,11.47
2023-01-31T16:12:50.748Z,10.70
2023-01-31T16:15:53.169Z,9.90
2023-01-31T16:18:59.211Z,11.20
2023-01-31T16:22:00.700Z,13.13
2023-01-31T16:25:04.931Z,13.53
2023-01-31T16:28:11.918Z,11.17
2023-01-31T16:31:18.933Z,7.83
2023-01-31T16:34:27.824Z,12.20
2023-01-31T16:37:37.957Z,11.13
2023-01-31T16:40:47.876Z,9.77
2023-01-31T16:43:51.147Z,9.63
2023-01-31T16:46:53.740Z,9.97
2023-01-31T16:50:15.056Z,13.17
2023-01-31T16:53:18.182Z,8.97
2023-01-31T16:56:21.542Z,11.50
2023-01-31T16:59:34.998Z,7.23
2023-01-31T17:02:40.813Z,12.90
2023-01-31T17:05:47.493Z,9.30
2023-01-31T17:08:49.573Z,10.60
2023-01-31T17:11:53.554Z,8.73
2023-01-31T17:15:01.598Z,8.47
2023-01-31T17:18:03.992Z,10.20
2023-01-31T17:21:06.139Z,8.00
2023-01-31T17:24:15.448Z,9.27
2023-01-31T17:27:18.649Z,9.80
2023-01-31T17:30:22.069Z,9.53
2023-01-31T17:33:23.501Z,9.77
2023-01-31T17:36:24.958Z,10.00
2023-01-31T17:39:26.403Z,8.20
2023-01-31T17:42:27.897Z,12.40
2023-01-31T17:45:29.684Z,9.67
2023-01-31T17:48:31.105Z,11.83
2023-01-31T17:51:32.599Z,9.40
2023-01-31T17:54:34.118Z,10.40
2023-01-31T17:57:35.525Z,8.10
2023-01-31T18:00:36.901Z,12.87
2023-01-31T18:03:38.332Z,14.03
2023-01-31T18:06:39.719Z,10.97
2023-01-31T18:09:41.090Z,10.30
2023-01-31T18:12:42.600Z,8.73
2023-01-31T18:15:44.081Z,8.17
2023-01-31T18:18:45.522Z,10.70
2023-01-31T18:21:54.478Z,9.63
2023-01-31T18:24:56.505Z,11.53
2023-01-31T18:27:58.899Z,7.07
2023-01-31T18:31:10.580Z,9.13
2023-01-31T18:34:12.277Z,10.17
2023-01-31T18:37:19.945Z,8.47
2023-01-31T18:40:21.449Z,8.67
2023-01-31T18:43:23.827Z,7.57
2023-01-31T18:46:25.486Z,7.63
2023-01-31T18:49:26.900Z,10.60
2023-01-31T18:52:29.818Z,8.63
2023-01-31T18:55:31.301Z,11.80
2023-01-31T18:58:37.863Z,6.87
2023-01-31T19:01:42.871Z,10.87
2023-01-31T19:04:44.692Z,9.63
2023-01-31T19:07:46.101Z,8.43
2023-01-31T19:10:47.640Z,8.23
2023-01-31T19:13:49.300Z,8.03
2023-01-31T19:16:50.713Z,8.40
2023-01-31T19:19:52.164Z,10.83
2023-01-31T19:22:53.650Z,7.97
2023-01-31T19:25:55.086Z,8.13
2023-01-31T19:28:58.459Z,9.40
2023-01-31T19:31:59.947Z,9.97
2023-01-31T19:35:02.727Z,8.33
2023-01-31T19:38:04.365Z,10.47
2023-01-31T19:41:08.271Z,10.07
2023-01-31T19:44:10.031Z,7.23
2023-01-31T19:47:11.539Z,7.60
2023-01-31T19:50:12.947Z,9.13
2023-01-31T19:53:14.337Z,10.13
2023-01-31T19:56:17.071Z,11.83
2023-01-31T19:59:19.645Z,9.53
2023-01-31T20:02:21.056Z,7.90
2023-01-31T20:05:22.915Z,8.70
2023-01-31T20:08:24.914Z,8.83
2023-01-31T20:11:28.725Z,10.43
2023-01-31T20:14:30.300Z,10.40
2023-01-31T20:17:32.430Z,7.83
2023-01-31T20:20:33.836Z,10.77
2023-01-31T20:23:35.625Z,6.87
2023-01-31T20:26:37.032Z,9.20
2023-01-31T20:29:38.468Z,9.30
2023-01-31T20:32:39.873Z,7.50
2023-01-31T20:35:41.447Z,10.00
2023-01-31T20:38:42.840Z,9.70
2023-01-31T20:41:44.410Z,9.73
2023-01-31T20:44:45.880Z,7.30
2023-01-31T20:47:47.256Z,8.47
2023-01-31T20:50:56.211Z,7.20
2023-01-31T20:53:58.774Z,8.73
2023-01-31T20:57:00.200Z,7.37
2023-01-31T21:00:01.579Z,9.57
2023-01-31T21:03:03.558Z,7.37
2023-01-31T21:06:05.872Z,8.30
2023-01-31T21:09:07.834Z,8.20
2023-01-31T21:12:09.234Z,5.93
2023-01-31T21:15:11.155Z,9.93
2023-01-31T21:18:12.545Z,6.60
2023-01-31T21:21:23.043Z,6.23
2023-01-31T21:24:24.439Z,9.00
2023-01-31T21:27:25.870Z,8.10
2023-01-31T21:30:27.315Z,6.83
2023-01-31T21:33:29.390Z,7.27
2023-01-31T21:36:32.462Z,4.93
2023-01-31T21:39:33.907Z,6.47
2023-01-31T21:42:35.311Z,5.83
2023-01-31T21:45:39.950Z,6.57
2023-01-31T21:48:42.123Z,10.13
2023-01-31T21:51:43.568Z,5.63
2023-01-31T21:54:45.012Z,7.53
2023-01-31T21:57:46.473Z,6.93
2023-01-31T22:00:47.928Z,6.73
2023-01-31T22:03:51.150Z,7.00
2023-01-31T22:06:53.407Z,6.00
2023-01-31T22:09:54.931Z,8.70
2023-01-31T22:12:56.332Z,7.47
2023-01-31T22:16:04.058Z,6.93
2023-01-31T22:19:06.454Z,6.70
2023-01-31T22:22:07.868Z,5.83
2023-01-31T22:25:10.151Z,7.63
2023-01-31T22:28:11.555Z,7.47
2023-01-31T22:31:13.068Z,5.80
2023-01-31T22:34:16.590Z,6.33
2023-01-31T22:37:18.006Z,7.70
2023-01-31T22:40:19.828Z,6.70
2023-01-31T22:43:21.443Z,5.50
2023-01-31T22:46:28.229Z,4.43
2023-01-31T22:49:29.676Z,5.87
2023-01-31T22:52:31.085Z,8.77
2023-01-31T22:55:40.165Z,4.77
2023-01-31T22:58:42.379Z,6.30
2023-01-31T23:01:43.768Z,5.50
2023-01-31T23:04:45.273Z,6.27
2023-01-31T23:07:46.673Z,4.70
2023-01-31T23:10:48.134Z,5.00
2023-01-31T23:13:49.767Z,5.37
2023-01-31T23:17:09.628Z,5.27
2023-01-31T23:20:17.051Z,7.13
2023-01-31T23:23:18.544Z,5.43
2023-01-31T23:26:19.982Z,5.13
2023-01-31T23:29:21.700Z,6.53
2023-01-31T23:32:23.111Z,5.50
2023-01-31T23:35:24.505Z,6.27
2023-01-31T23:38:26.078Z,5.70
2023-01-31T23:41:27.518Z,6.43
2023-01-31T23:44:28.993Z,4.77
2023-01-31T23:47:30.382Z,4.60
2023-01-31T23:50:31.784Z,4.20
2023-01-31T23:53:33.171Z,5.70
2023-01-31T23:56:34.574Z,5.53
2023-01-31T23:59:36.062Z,4.80
